Terminal Aerodrome Forecast
Issued by NWS

Home | Current Version | Previous Version | Graphics & Text | Print | Product List | Glossary On
Versions: 1 2 3 4 5 6 7 8 9 10 11 12 13 14 15 16 17 18 19 20
778
FTUS43 KGRB 061434 AAA
TAFMTW
TAF AMD
KMTW 061434Z 0615/0712 17005KT P6SM SCT012 OVC150
      TEMPO 0615/0617 6SM BR BKN012
     FM061700 18009G15KT P6SM BKN009
     FM061800 18011G17KT P6SM BKN011
     FM062000 22012G17KT P6SM BKN016
     FM062100 23012G17KT P6SM BKN022
     FM062200 25015G22KT P6SM SCT040=

USA.gov is the U.S. government's official web portal to all federal, state and local government web resources and services.